sensor_id;sensor_type;location;lat;lon;timestamp;P1;durP1;ratioP1;P2;durP2;ratioP2
13303;SDS011;6720;51.958;4.540;2023-03-12T00:00:13;7.97;;;6.63;;
13303;SDS011;6720;51.958;4.540;2023-03-12T00:02:39;9.83;;;6.80;;
13303;SDS011;6720;51.958;4.540;2023-03-12T00:05:04;8.83;;;7.07;;
13303;SDS011;6720;51.958;4.540;2023-03-12T00:07:30;8.90;;;6.90;;
13303;SDS011;6720;51.958;4.540;2023-03-12T00:09:56;11.53;;;7.47;;
13303;SDS011;6720;51.958;4.540;2023-03-12T00:12:21;8.67;;;7.27;;
13303;SDS011;6720;51.958;4.540;2023-03-12T00:14:47;8.07;;;7.23;;
13303;SDS011;6720;51.958;4.540;2023-03-12T00:17:12;9.20;;;7.70;;
13303;SDS011;6720;51.958;4.540;2023-03-12T00:19:38;10.60;;;7.17;;
13303;SDS011;6720;51.958;4.540;2023-03-12T00:22:03;9.90;;;7.43;;
13303;SDS011;6720;51.958;4.540;2023-03-12T00:24:28;9.30;;;7.27;;
13303;SDS011;6720;51.958;4.540;2023-03-12T00:26:54;8.83;;;6.50;;
13303;SDS011;6720;51.958;4.540;2023-03-12T00:29:19;8.97;;;6.83;;
13303;SDS011;6720;51.958;4.540;2023-03-12T00:31:46;7.73;;;6.40;;
13303;SDS011;6720;51.958;4.540;2023-03-12T00:34:11;8.40;;;6.17;;
13303;SDS011;6720;51.958;4.540;2023-03-12T00:36:37;8.77;;;5.60;;
13303;SDS011;6720;51.958;4.540;2023-03-12T00:39:04;8.73;;;5.27;;
13303;SDS011;6720;51.958;4.540;2023-03-12T00:41:30;10.37;;;5.53;;
13303;SDS011;6720;51.958;4.540;2023-03-12T00:43:55;7.43;;;5.00;;
13303;SDS011;6720;51.958;4.540;2023-03-12T00:46:22;7.47;;;4.67;;
13303;SDS011;6720;51.958;4.540;2023-03-12T00:48:47;6.63;;;4.90;;
13303;SDS011;6720;51.958;4.540;2023-03-12T00:51:13;6.03;;;4.77;;
13303;SDS011;6720;51.958;4.540;2023-03-12T00:53:38;6.77;;;4.20;;
13303;SDS011;6720;51.958;4.540;2023-03-12T00:56:05;7.20;;;4.60;;
13303;SDS011;6720;51.958;4.540;2023-03-12T00:58:30;6.73;;;4.43;;
13303;SDS011;6720;51.958;4.540;2023-03-12T01:00:56;6.93;;;4.33;;
13303;SDS011;6720;51.958;4.540;2023-03-12T01:03:21;7.47;;;5.03;;
13303;SDS011;6720;51.958;4.540;2023-03-12T01:05:47;7.23;;;4.67;;
13303;SDS011;6720;51.958;4.540;2023-03-12T01:08:18;8.77;;;4.87;;
13303;SDS011;6720;51.958;4.540;2023-03-12T01:10:44;8.17;;;5.07;;
13303;SDS011;6720;51.958;4.540;2023-03-12T01:13:09;9.53;;;5.13;;
13303;SDS011;6720;51.958;4.540;2023-03-12T01:15:35;7.57;;;5.10;;
13303;SDS011;6720;51.958;4.540;2023-03-12T01:18:00;9.73;;;5.73;;
13303;SDS011;6720;51.958;4.540;2023-03-12T01:20:25;6.40;;;4.80;;
13303;SDS011;6720;51.958;4.540;2023-03-12T01:22:51;6.70;;;5.27;;
13303;SDS011;6720;51.958;4.540;2023-03-12T01:25:17;6.30;;;4.80;;
13303;SDS011;6720;51.958;4.540;2023-03-12T01:27:42;7.90;;;4.87;;
13303;SDS011;6720;51.958;4.540;2023-03-12T01:30:08;9.77;;;4.93;;
13303;SDS011;6720;51.958;4.540;2023-03-12T01:32:34;8.40;;;5.20;;
13303;SDS011;6720;51.958;4.540;2023-03-12T01:35:00;9.10;;;5.77;;
13303;SDS011;6720;51.958;4.540;2023-03-12T01:37:38;8.80;;;5.20;;
13303;SDS011;6720;51.958;4.540;2023-03-12T01:40:41;8.77;;;4.87;;
13303;SDS011;6720;51.958;4.540;2023-03-12T01:43:39;7.83;;;5.17;;
13303;SDS011;6720;51.958;4.540;2023-03-12T01:46:39;8.03;;;4.70;;
13303;SDS011;6720;51.958;4.540;2023-03-12T01:49:38;11.67;;;5.50;;
13303;SDS011;6720;51.958;4.540;2023-03-12T01:57:30;7.87;;;5.13;;
13303;SDS011;6720;51.958;4.540;2023-03-12T02:00:06;6.00;;;4.60;;
13303;SDS011;6720;51.958;4.540;2023-03-12T02:02:33;8.87;;;5.07;;
13303;SDS011;6720;51.958;4.540;2023-03-12T02:07:57;6.10;;;4.90;;
13303;SDS011;6720;51.958;4.540;2023-03-12T02:10:23;9.13;;;5.53;;
13303;SDS011;6720;51.958;4.540;2023-03-12T02:12:49;9.90;;;5.50;;
13303;SDS011;6720;51.958;4.540;2023-03-12T02:15:15;8.97;;;5.80;;
13303;SDS011;6720;51.958;4.540;2023-03-12T02:17:41;9.03;;;5.50;;
13303;SDS011;6720;51.958;4.540;2023-03-12T02:23:10;5.53;;;4.83;;
13303;SDS011;6720;51.958;4.540;2023-03-12T02:25:40;8.40;;;4.83;;
13303;SDS011;6720;51.958;4.540;2023-03-12T02:28:09;9.93;;;5.17;;
13303;SDS011;6720;51.958;4.540;2023-03-12T02:30:38;9.80;;;5.10;;
13303;SDS011;6720;51.958;4.540;2023-03-12T02:33:07;8.33;;;5.30;;
13303;SDS011;6720;51.958;4.540;2023-03-12T02:35:33;7.33;;;4.97;;
13303;SDS011;6720;51.958;4.540;2023-03-12T02:37:59;7.57;;;5.13;;
13303;SDS011;6720;51.958;4.540;2023-03-12T02:40:32;7.00;;;4.90;;
13303;SDS011;6720;51.958;4.540;2023-03-12T02:43:00;10.40;;;5.50;;
13303;SDS011;6720;51.958;4.540;2023-03-12T02:45:28;7.47;;;5.67;;
13303;SDS011;6720;51.958;4.540;2023-03-12T02:47:54;6.93;;;5.60;;
13303;SDS011;6720;51.958;4.540;2023-03-12T02:50:19;8.10;;;5.43;;
13303;SDS011;6720;51.958;4.540;2023-03-12T02:52:45;8.27;;;5.27;;
13303;SDS011;6720;51.958;4.540;2023-03-12T02:55:10;8.47;;;5.60;;
13303;SDS011;6720;51.958;4.540;2023-03-12T02:57:36;6.60;;;5.40;;
13303;SDS011;6720;51.958;4.540;2023-03-12T03:00:02;8.00;;;5.30;;
13303;SDS011;6720;51.958;4.540;2023-03-12T03:02:33;8.80;;;5.40;;
13303;SDS011;6720;51.958;4.540;2023-03-12T03:04:59;9.23;;;5.60;;
13303;SDS011;6720;51.958;4.540;2023-03-12T03:07:24;9.93;;;5.60;;
13303;SDS011;6720;51.958;4.540;2023-03-12T03:09:50;8.13;;;5.13;;
13303;SDS011;6720;51.958;4.540;2023-03-12T03:12:15;6.23;;;4.97;;
13303;SDS011;6720;51.958;4.540;2023-03-12T03:14:40;6.93;;;5.50;;
13303;SDS011;6720;51.958;4.540;2023-03-12T03:17:06;11.73;;;5.63;;
13303;SDS011;6720;51.958;4.540;2023-03-12T03:19:31;10.57;;;5.57;;
13303;SDS011;6720;51.958;4.540;2023-03-12T03:21:56;7.67;;;5.90;;
13303;SDS011;6720;51.958;4.540;2023-03-12T03:24:22;7.40;;;5.00;;
13303;SDS011;6720;51.958;4.540;2023-03-12T03:26:47;8.30;;;5.43;;
13303;SDS011;6720;51.958;4.540;2023-03-12T03:29:13;9.43;;;5.40;;
13303;SDS011;6720;51.958;4.540;2023-03-12T03:31:38;8.23;;;4.90;;
13303;SDS011;6720;51.958;4.540;2023-03-12T03:34:03;9.40;;;5.07;;
13303;SDS011;6720;51.958;4.540;2023-03-12T03:36:29;8.90;;;5.40;;
13303;SDS011;6720;51.958;4.540;2023-03-12T03:38:54;10.00;;;5.80;;
13303;SDS011;6720;51.958;4.540;2023-03-12T03:41:20;11.13;;;5.77;;
13303;SDS011;6720;51.958;4.540;2023-03-12T03:43:45;9.27;;;5.53;;
13303;SDS011;6720;51.958;4.540;2023-03-12T03:46:11;7.87;;;5.47;;
13303;SDS011;6720;51.958;4.540;2023-03-12T03:48:38;8.73;;;5.30;;
13303;SDS011;6720;51.958;4.540;2023-03-12T03:51:05;9.43;;;5.57;;
13303;SDS011;6720;51.958;4.540;2023-03-12T03:53:31;10.20;;;5.13;;
13303;SDS011;6720;51.958;4.540;2023-03-12T03:56:03;7.10;;;5.23;;
13303;SDS011;6720;51.958;4.540;2023-03-12T03:58:30;8.50;;;5.40;;
13303;SDS011;6720;51.958;4.540;2023-03-12T04:00:55;7.87;;;5.53;;
13303;SDS011;6720;51.958;4.540;2023-03-12T04:03:20;8.77;;;5.30;;
13303;SDS011;6720;51.958;4.540;2023-03-12T04:05:46;7.10;;;5.60;;
13303;SDS011;6720;51.958;4.540;2023-03-12T04:08:17;9.57;;;5.37;;
13303;SDS011;6720;51.958;4.540;2023-03-12T04:10:42;7.77;;;5.40;;
13303;SDS011;6720;51.958;4.540;2023-03-12T04:13:08;7.43;;;5.40;;
13303;SDS011;6720;51.958;4.540;2023-03-12T04:15:33;11.77;;;6.00;;
13303;SDS011;6720;51.958;4.540;2023-03-12T04:17:58;7.80;;;5.70;;
13303;SDS011;6720;51.958;4.540;2023-03-12T04:20:24;6.80;;;5.77;;
13303;SDS011;6720;51.958;4.540;2023-03-12T04:22:49;8.30;;;5.93;;
13303;SDS011;6720;51.958;4.540;2023-03-12T04:25:16;7.87;;;6.10;;
13303;SDS011;6720;51.958;4.540;2023-03-12T04:27:41;8.93;;;6.37;;
13303;SDS011;6720;51.958;4.540;2023-03-12T04:30:07;12.27;;;7.13;;
13303;SDS011;6720;51.958;4.540;2023-03-12T04:32:33;12.23;;;7.37;;
13303;SDS011;6720;51.958;4.540;2023-03-12T04:34:58;10.23;;;7.20;;
13303;SDS011;6720;51.958;4.540;2023-03-12T04:37:24;13.43;;;8.57;;
13303;SDS011;6720;51.958;4.540;2023-03-12T04:39:49;12.70;;;7.40;;
13303;SDS011;6720;51.958;4.540;2023-03-12T04:42:14;9.83;;;7.70;;
13303;SDS011;6720;51.958;4.540;2023-03-12T04:44:40;9.93;;;8.17;;
13303;SDS011;6720;51.958;4.540;2023-03-12T04:47:05;15.27;;;8.37;;
13303;SDS011;6720;51.958;4.540;2023-03-12T04:49:31;12.93;;;8.40;;
13303;SDS011;6720;51.958;4.540;2023-03-12T04:51:56;12.60;;;8.83;;
13303;SDS011;6720;51.958;4.540;2023-03-12T04:54:22;12.30;;;8.77;;
13303;SDS011;6720;51.958;4.540;2023-03-12T04:56:48;13.50;;;9.60;;
13303;SDS011;6720;51.958;4.540;2023-03-12T04:59:14;11.40;;;9.50;;
13303;SDS011;6720;51.958;4.540;2023-03-12T05:01:39;13.03;;;8.43;;
13303;SDS011;6720;51.958;4.540;2023-03-12T05:04:05;15.40;;;8.90;;
13303;SDS011;6720;51.958;4.540;2023-03-12T05:06:31;14.47;;;9.43;;
13303;SDS011;6720;51.958;4.540;2023-03-12T05:08:57;11.03;;;8.23;;
13303;SDS011;6720;51.958;4.540;2023-03-12T05:11:22;14.70;;;8.97;;
13303;SDS011;6720;51.958;4.540;2023-03-12T05:13:48;11.73;;;9.27;;
13303;SDS011;6720;51.958;4.540;2023-03-12T05:16:14;14.03;;;8.97;;
13303;SDS011;6720;51.958;4.540;2023-03-12T05:18:40;12.80;;;8.47;;
13303;SDS011;6720;51.958;4.540;2023-03-12T05:21:07;13.80;;;9.83;;
13303;SDS011;6720;51.958;4.540;2023-03-12T05:23:35;11.67;;;9.23;;
13303;SDS011;6720;51.958;4.540;2023-03-12T05:26:03;12.83;;;8.97;;
13303;SDS011;6720;51.958;4.540;2023-03-12T05:28:32;11.20;;;9.47;;
13303;SDS011;6720;51.958;4.540;2023-03-12T05:30:58;12.73;;;9.33;;
13303;SDS011;6720;51.958;4.540;2023-03-12T05:33:26;13.43;;;10.27;;
13303;SDS011;6720;51.958;4.540;2023-03-12T05:35:51;13.40;;;10.07;;
13303;SDS011;6720;51.958;4.540;2023-03-12T05:38:17;15.50;;;10.20;;
13303;SDS011;6720;51.958;4.540;2023-03-12T05:40:49;14.03;;;9.90;;
13303;SDS011;6720;51.958;4.540;2023-03-12T05:43:16;15.47;;;10.77;;
13303;SDS011;6720;51.958;4.540;2023-03-12T05:45:41;13.47;;;11.03;;
13303;SDS011;6720;51.958;4.540;2023-03-12T05:48:07;17.00;;;11.33;;
13303;SDS011;6720;51.958;4.540;2023-03-12T05:50:32;15.90;;;11.30;;
13303;SDS011;6720;51.958;4.540;2023-03-12T05:52:57;15.67;;;11.13;;
13303;SDS011;6720;51.958;4.540;2023-03-12T05:55:23;15.70;;;12.03;;
13303;SDS011;6720;51.958;4.540;2023-03-12T05:57:48;15.90;;;13.03;;
13303;SDS011;6720;51.958;4.540;2023-03-12T06:00:14;16.67;;;12.67;;
13303;SDS011;6720;51.958;4.540;2023-03-12T06:02:39;16.10;;;13.57;;
13303;SDS011;6720;51.958;4.540;2023-03-12T06:05:05;16.27;;;13.20;;
13303;SDS011;6720;51.958;4.540;2023-03-12T06:07:31;18.20;;;12.70;;
13303;SDS011;6720;51.958;4.540;2023-03-12T06:09:56;17.27;;;12.90;;
13303;SDS011;6720;51.958;4.540;2023-03-12T06:12:23;16.20;;;13.20;;
13303;SDS011;6720;51.958;4.540;2023-03-12T06:14:49;17.10;;;12.13;;
13303;SDS011;6720;51.958;4.540;2023-03-12T06:17:14;17.73;;;13.20;;
13303;SDS011;6720;51.958;4.540;2023-03-12T06:19:40;19.43;;;14.00;;
13303;SDS011;6720;51.958;4.540;2023-03-12T06:22:05;20.53;;;13.33;;
13303;SDS011;6720;51.958;4.540;2023-03-12T06:24:31;17.33;;;12.57;;
13303;SDS011;6720;51.958;4.540;2023-03-12T06:26:57;14.20;;;12.77;;
13303;SDS011;6720;51.958;4.540;2023-03-12T06:29:22;17.23;;;13.10;;
13303;SDS011;6720;51.958;4.540;2023-03-12T06:31:49;13.73;;;11.90;;
13303;SDS011;6720;51.958;4.540;2023-03-12T06:34:17;15.33;;;13.47;;
13303;SDS011;6720;51.958;4.540;2023-03-12T06:36:43;16.57;;;12.80;;
13303;SDS011;6720;51.958;4.540;2023-03-12T06:39:08;19.03;;;12.87;;
13303;SDS011;6720;51.958;4.540;2023-03-12T06:41:34;14.63;;;13.07;;
13303;SDS011;6720;51.958;4.540;2023-03-12T06:44:00;14.97;;;12.93;;
13303;SDS011;6720;51.958;4.540;2023-03-12T06:46:29;14.93;;;12.63;;
13303;SDS011;6720;51.958;4.540;2023-03-12T06:48:55;15.93;;;12.70;;
13303;SDS011;6720;51.958;4.540;2023-03-12T06:51:21;17.13;;;14.20;;
13303;SDS011;6720;51.958;4.540;2023-03-12T06:53:46;17.20;;;13.43;;
13303;SDS011;6720;51.958;4.540;2023-03-12T06:56:12;18.20;;;14.40;;
13303;SDS011;6720;51.958;4.540;2023-03-12T06:58:38;18.70;;;14.13;;
13303;SDS011;6720;51.958;4.540;2023-03-12T07:01:04;16.10;;;13.47;;
13303;SDS011;6720;51.958;4.540;2023-03-12T07:03:30;17.50;;;14.07;;
13303;SDS011;6720;51.958;4.540;2023-03-12T07:05:56;18.80;;;13.50;;
13303;SDS011;6720;51.958;4.540;2023-03-12T07:08:22;18.07;;;14.40;;
13303;SDS011;6720;51.958;4.540;2023-03-12T07:10:48;17.63;;;14.10;;
13303;SDS011;6720;51.958;4.540;2023-03-12T07:13:14;18.77;;;14.97;;
13303;SDS011;6720;51.958;4.540;2023-03-12T07:15:40;18.70;;;14.83;;
13303;SDS011;6720;51.958;4.540;2023-03-12T07:18:06;20.90;;;15.63;;
13303;SDS011;6720;51.958;4.540;2023-03-12T07:20:35;20.20;;;15.67;;
13303;SDS011;6720;51.958;4.540;2023-03-12T07:23:01;19.83;;;16.23;;
13303;SDS011;6720;51.958;4.540;2023-03-12T07:25:27;19.57;;;15.67;;
13303;SDS011;6720;51.958;4.540;2023-03-12T07:27:53;19.80;;;16.93;;
13303;SDS011;6720;51.958;4.540;2023-03-12T07:30:18;28.57;;;17.10;;
13303;SDS011;6720;51.958;4.540;2023-03-12T07:32:44;21.30;;;17.83;;
13303;SDS011;6720;51.958;4.540;2023-03-12T07:35:09;23.77;;;17.60;;
13303;SDS011;6720;51.958;4.540;2023-03-12T07:37:35;21.40;;;17.20;;
13303;SDS011;6720;51.958;4.540;2023-03-12T07:40:00;26.87;;;19.23;;
13303;SDS011;6720;51.958;4.540;2023-03-12T07:42:25;23.47;;;19.40;;
13303;SDS011;6720;51.958;4.540;2023-03-12T07:44:51;26.87;;;19.20;;
13303;SDS011;6720;51.958;4.540;2023-03-12T07:47:16;26.53;;;20.43;;
13303;SDS011;6720;51.958;4.540;2023-03-12T07:49:42;28.73;;;21.37;;
13303;SDS011;6720;51.958;4.540;2023-03-12T07:52:07;28.63;;;20.37;;
13303;SDS011;6720;51.958;4.540;2023-03-12T07:54:35;30.27;;;21.13;;
13303;SDS011;6720;51.958;4.540;2023-03-12T07:57:02;32.70;;;22.37;;
13303;SDS011;6720;51.958;4.540;2023-03-12T07:59:28;36.00;;;22.50;;
13303;SDS011;6720;51.958;4.540;2023-03-12T08:01:53;32.63;;;22.50;;
13303;SDS011;6720;51.958;4.540;2023-03-12T08:04:18;38.30;;;26.03;;
13303;SDS011;6720;51.958;4.540;2023-03-12T08:06:44;38.77;;;25.90;;
13303;SDS011;6720;51.958;4.540;2023-03-12T08:09:09;38.87;;;27.53;;
13303;SDS011;6720;51.958;4.540;2023-03-12T08:11:35;40.73;;;27.60;;
13303;SDS011;6720;51.958;4.540;2023-03-12T08:14:01;45.23;;;28.93;;
13303;SDS011;6720;51.958;4.540;2023-03-12T08:16:27;43.97;;;30.37;;
13303;SDS011;6720;51.958;4.540;2023-03-12T08:18:53;48.73;;;31.37;;
13303;SDS011;6720;51.958;4.540;2023-03-12T08:21:18;50.37;;;29.97;;
13303;SDS011;6720;51.958;4.540;2023-03-12T08:23:44;54.10;;;33.27;;
13303;SDS011;6720;51.958;4.540;2023-03-12T08:26:09;56.73;;;35.10;;
13303;SDS011;6720;51.958;4.540;2023-03-12T08:28:34;59.23;;;35.23;;
13303;SDS011;6720;51.958;4.540;2023-03-12T08:31:00;55.87;;;34.83;;
13303;SDS011;6720;51.958;4.540;2023-03-12T08:33:26;60.10;;;35.50;;
13303;SDS011;6720;51.958;4.540;2023-03-12T08:35:51;67.33;;;37.80;;
13303;SDS011;6720;51.958;4.540;2023-03-12T08:38:17;59.40;;;38.73;;
13303;SDS011;6720;51.958;4.540;2023-03-12T08:40:43;65.17;;;36.03;;
13303;SDS011;6720;51.958;4.540;2023-03-12T08:43:09;66.10;;;36.67;;
13303;SDS011;6720;51.958;4.540;2023-03-12T08:45:35;62.47;;;38.00;;
13303;SDS011;6720;51.958;4.540;2023-03-12T08:48:04;55.17;;;33.20;;
13303;SDS011;6720;51.958;4.540;2023-03-12T08:50:31;62.80;;;37.67;;
13303;SDS011;6720;51.958;4.540;2023-03-12T08:52:57;64.40;;;36.13;;
13303;SDS011;6720;51.958;4.540;2023-03-12T08:55:24;64.80;;;36.57;;
13303;SDS011;6720;51.958;4.540;2023-03-12T08:57:53;58.70;;;35.27;;
13303;SDS011;6720;51.958;4.540;2023-03-12T09:00:19;65.90;;;35.33;;
13303;SDS011;6720;51.958;4.540;2023-03-12T09:02:50;85.80;;;35.83;;
13303;SDS011;6720;51.958;4.540;2023-03-12T09:05:16;58.40;;;34.10;;
13303;SDS011;6720;51.958;4.540;2023-03-12T09:07:42;51.23;;;32.97;;
13303;SDS011;6720;51.958;4.540;2023-03-12T09:10:07;46.60;;;29.57;;
13303;SDS011;6720;51.958;4.540;2023-03-12T09:12:34;49.57;;;30.50;;
13303;SDS011;6720;51.958;4.540;2023-03-12T09:15:00;47.47;;;27.47;;
13303;SDS011;6720;51.958;4.540;2023-03-12T09:17:27;41.63;;;27.70;;
13303;SDS011;6720;51.958;4.540;2023-03-12T09:19:53;43.63;;;25.27;;
13303;SDS011;6720;51.958;4.540;2023-03-12T09:22:18;41.20;;;24.23;;
13303;SDS011;6720;51.958;4.540;2023-03-12T09:24:43;40.63;;;23.17;;
13303;SDS011;6720;51.958;4.540;2023-03-12T09:27:09;37.57;;;20.73;;
13303;SDS011;6720;51.958;4.540;2023-03-12T09:29:34;35.27;;;20.57;;
13303;SDS011;6720;51.958;4.540;2023-03-12T09:32:00;36.20;;;18.00;;
13303;SDS011;6720;51.958;4.540;2023-03-12T09:34:37;33.17;;;16.20;;
13303;SDS011;6720;51.958;4.540;2023-03-12T09:37:06;32.30;;;15.07;;
13303;SDS011;6720;51.958;4.540;2023-03-12T09:39:31;34.37;;;14.43;;
13303;SDS011;6720;51.958;4.540;2023-03-12T09:41:57;28.77;;;11.87;;
13303;SDS011;6720;51.958;4.540;2023-03-12T09:47:15;28.20;;;11.33;;
13303;SDS011;6720;51.958;4.540;2023-03-12T09:49:53;25.00;;;10.13;;
13303;SDS011;6720;51.958;4.540;2023-03-12T09:55:13;30.97;;;9.20;;
13303;SDS011;6720;51.958;4.540;2023-03-12T09:57:40;35.30;;;10.10;;
13303;SDS011;6720;51.958;4.540;2023-03-12T10:00:11;32.20;;;9.30;;
13303;SDS011;6720;51.958;4.540;2023-03-12T10:02:53;28.97;;;9.00;;
13303;SDS011;6720;51.958;4.540;2023-03-12T10:17:29;27.73;;;8.10;;
13303;SDS011;6720;51.958;4.540;2023-03-12T10:20:02;30.87;;;8.60;;
13303;SDS011;6720;51.958;4.540;2023-03-12T10:28:39;26.53;;;7.47;;
13303;SDS011;6720;51.958;4.540;2023-03-12T10:31:13;34.33;;;8.73;;
13303;SDS011;6720;51.958;4.540;2023-03-12T10:36:19;32.57;;;7.70;;
13303;SDS011;6720;51.958;4.540;2023-03-12T10:38:47;29.90;;;7.47;;
13303;SDS011;6720;51.958;4.540;2023-03-12T10:41:18;37.47;;;8.93;;
13303;SDS011;6720;51.958;4.540;2023-03-12T10:43:45;26.17;;;7.40;;
13303;SDS011;6720;51.958;4.540;2023-03-12T10:54:42;30.87;;;8.87;;
13303;SDS011;6720;51.958;4.540;2023-03-12T10:57:09;27.83;;;7.33;;
13303;SDS011;6720;51.958;4.540;2023-03-12T10:59:37;29.30;;;7.87;;
13303;SDS011;6720;51.958;4.540;2023-03-12T11:04:51;27.27;;;9.53;;
13303;SDS011;6720;51.958;4.540;2023-03-12T11:12:33;28.93;;;8.13;;
13303;SDS011;6720;51.958;4.540;2023-03-12T11:17:46;32.30;;;7.80;;
13303;SDS011;6720;51.958;4.540;2023-03-12T11:22:50;28.37;;;7.17;;
13303;SDS011;6720;51.958;4.540;2023-03-12T11:25:20;32.07;;;6.33;;
13303;SDS011;6720;51.958;4.540;2023-03-12T11:27:50;27.60;;;7.97;;
13303;SDS011;6720;51.958;4.540;2023-03-12T11:30:22;30.57;;;7.97;;
13303;SDS011;6720;51.958;4.540;2023-03-12T11:32:53;32.83;;;8.07;;
13303;SDS011;6720;51.958;4.540;2023-03-12T11:35:29;23.83;;;6.87;;
13303;SDS011;6720;51.958;4.540;2023-03-12T11:38:17;29.07;;;7.50;;
13303;SDS011;6720;51.958;4.540;2023-03-12T11:43:22;29.17;;;7.10;;
13303;SDS011;6720;51.958;4.540;2023-03-12T11:55:03;30.03;;;7.57;;
13303;SDS011;6720;51.958;4.540;2023-03-12T12:03:19;29.53;;;7.70;;
13303;SDS011;6720;51.958;4.540;2023-03-12T12:08:39;28.23;;;7.57;;
13303;SDS011;6720;51.958;4.540;2023-03-12T12:11:39;31.73;;;7.20;;
13303;SDS011;6720;51.958;4.540;2023-03-12T12:14:34;24.13;;;7.47;;
13303;SDS011;6720;51.958;4.540;2023-03-12T12:19:49;32.57;;;8.07;;
13303;SDS011;6720;51.958;4.540;2023-03-12T12:27:46;35.90;;;8.90;;
13303;SDS011;6720;51.958;4.540;2023-03-12T12:35:39;34.20;;;8.37;;
13303;SDS011;6720;51.958;4.540;2023-03-12T12:38:19;27.83;;;8.03;;
13303;SDS011;6720;51.958;4.540;2023-03-12T12:40:54;33.73;;;8.17;;
13303;SDS011;6720;51.958;4.540;2023-03-12T12:46:04;24.30;;;6.37;;
13303;SDS011;6720;51.958;4.540;2023-03-12T12:48:35;27.23;;;7.67;;
13303;SDS011;6720;51.958;4.540;2023-03-12T12:51:06;26.30;;;7.70;;
13303;SDS011;6720;51.958;4.540;2023-03-12T12:56:27;27.47;;;7.07;;
13303;SDS011;6720;51.958;4.540;2023-03-12T13:01:47;30.37;;;8.27;;
13303;SDS011;6720;51.958;4.540;2023-03-12T13:04:15;28.33;;;7.47;;
13303;SDS011;6720;51.958;4.540;2023-03-12T13:06:59;28.03;;;7.50;;
13303;SDS011;6720;51.958;4.540;2023-03-12T13:09:38;24.60;;;6.93;;
13303;SDS011;6720;51.958;4.540;2023-03-12T13:12:17;25.73;;;6.87;;
13303;SDS011;6720;51.958;4.540;2023-03-12T13:14:49;24.10;;;6.83;;
13303;SDS011;6720;51.958;4.540;2023-03-12T13:20:20;26.47;;;7.37;;
13303;SDS011;6720;51.958;4.540;2023-03-12T13:22:53;28.37;;;7.27;;
13303;SDS011;6720;51.958;4.540;2023-03-12T13:30:56;25.07;;;7.37;;
13303;SDS011;6720;51.958;4.540;2023-03-12T13:33:36;31.23;;;7.17;;
13303;SDS011;6720;51.958;4.540;2023-03-12T13:41:36;24.67;;;6.83;;
13303;SDS011;6720;51.958;4.540;2023-03-12T13:45:02;32.53;;;8.80;;
13303;SDS011;6720;51.958;4.540;2023-03-12T13:50:14;28.70;;;7.33;;
13303;SDS011;6720;51.958;4.540;2023-03-12T13:55:25;26.00;;;7.43;;
13303;SDS011;6720;51.958;4.540;2023-03-12T13:57:53;31.70;;;7.83;;
13303;SDS011;6720;51.958;4.540;2023-03-12T14:00:28;29.13;;;8.60;;
13303;SDS011;6720;51.958;4.540;2023-03-12T14:03:01;34.10;;;8.83;;
13303;SDS011;6720;51.958;4.540;2023-03-12T14:05:43;31.63;;;8.17;;
13303;SDS011;6720;51.958;4.540;2023-03-12T14:13:27;30.73;;;8.53;;
13303;SDS011;6720;51.958;4.540;2023-03-12T14:18:44;31.67;;;8.67;;
13303;SDS011;6720;51.958;4.540;2023-03-12T14:21:13;30.47;;;8.13;;
13303;SDS011;6720;51.958;4.540;2023-03-12T14:23:43;32.67;;;8.83;;
13303;SDS011;6720;51.958;4.540;2023-03-12T14:26:16;31.13;;;8.43;;
13303;SDS011;6720;51.958;4.540;2023-03-12T14:28:45;27.47;;;7.60;;
13303;SDS011;6720;51.958;4.540;2023-03-12T14:31:14;32.63;;;8.37;;
13303;SDS011;6720;51.958;4.540;2023-03-12T14:33:58;32.43;;;7.73;;
13303;SDS011;6720;51.958;4.540;2023-03-12T14:36:29;33.27;;;8.67;;
13303;SDS011;6720;51.958;4.540;2023-03-12T14:39:16;32.23;;;7.80;;
13303;SDS011;6720;51.958;4.540;2023-03-12T14:42:04;30.23;;;7.67;;
13303;SDS011;6720;51.958;4.540;2023-03-12T14:44:32;29.53;;;8.03;;
13303;SDS011;6720;51.958;4.540;2023-03-12T14:47:04;31.43;;;8.33;;
13303;SDS011;6720;51.958;4.540;2023-03-12T14:49:42;28.33;;;7.67;;
13303;SDS011;6720;51.958;4.540;2023-03-12T14:52:10;31.27;;;7.80;;
13303;SDS011;6720;51.958;4.540;2023-03-12T14:54:51;30.50;;;7.57;;
13303;SDS011;6720;51.958;4.540;2023-03-12T14:57:19;31.67;;;8.17;;
13303;SDS011;6720;51.958;4.540;2023-03-12T14:59:59;30.83;;;9.07;;
13303;SDS011;6720;51.958;4.540;2023-03-12T15:02:25;26.83;;;7.20;;
13303;SDS011;6720;51.958;4.540;2023-03-12T15:04:56;32.07;;;7.77;;
13303;SDS011;6720;51.958;4.540;2023-03-12T15:07:28;31.50;;;7.60;;
13303;SDS011;6720;51.958;4.540;2023-03-12T15:09:59;32.70;;;7.57;;
13303;SDS011;6720;51.958;4.540;2023-03-12T15:12:36;31.80;;;7.73;;
13303;SDS011;6720;51.958;4.540;2023-03-12T15:15:06;31.17;;;7.53;;
13303;SDS011;6720;51.958;4.540;2023-03-12T15:17:33;33.13;;;8.03;;
13303;SDS011;6720;51.958;4.540;2023-03-12T15:20:00;31.53;;;8.80;;
13303;SDS011;6720;51.958;4.540;2023-03-12T15:22:29;31.00;;;7.37;;
13303;SDS011;6720;51.958;4.540;2023-03-12T15:24:55;30.60;;;8.87;;
13303;SDS011;6720;51.958;4.540;2023-03-12T15:29:53;29.63;;;7.57;;
13303;SDS011;6720;51.958;4.540;2023-03-12T15:32:19;29.73;;;8.20;;
13303;SDS011;6720;51.958;4.540;2023-03-12T15:34:48;32.53;;;8.63;;
13303;SDS011;6720;51.958;4.540;2023-03-12T15:37:20;30.07;;;7.73;;
13303;SDS011;6720;51.958;4.540;2023-03-12T15:39:47;35.53;;;7.43;;
13303;SDS011;6720;51.958;4.540;2023-03-12T15:42:16;30.97;;;8.00;;
13303;SDS011;6720;51.958;4.540;2023-03-12T15:44:44;27.30;;;7.03;;
13303;SDS011;6720;51.958;4.540;2023-03-12T15:47:13;32.40;;;8.40;;
13303;SDS011;6720;51.958;4.540;2023-03-12T15:49:41;29.70;;;8.00;;
13303;SDS011;6720;51.958;4.540;2023-03-12T15:54:42;26.87;;;7.27;;
13303;SDS011;6720;51.958;4.540;2023-03-12T15:57:23;32.33;;;7.83;;
13303;SDS011;6720;51.958;4.540;2023-03-12T16:00:06;35.07;;;7.23;;
13303;SDS011;6720;51.958;4.540;2023-03-12T16:02:50;35.13;;;10.07;;
13303;SDS011;6720;51.958;4.540;2023-03-12T16:05:19;31.90;;;9.13;;
13303;SDS011;6720;51.958;4.540;2023-03-12T16:07:47;34.77;;;9.83;;
13303;SDS011;6720;51.958;4.540;2023-03-12T16:10:13;35.27;;;8.40;;
13303;SDS011;6720;51.958;4.540;2023-03-12T16:12:42;36.70;;;9.37;;
13303;SDS011;6720;51.958;4.540;2023-03-12T16:15:13;38.47;;;9.97;;
13303;SDS011;6720;51.958;4.540;2023-03-12T16:17:52;44.13;;;10.80;;
13303;SDS011;6720;51.958;4.540;2023-03-12T16:20:18;42.40;;;10.67;;
13303;SDS011;6720;51.958;4.540;2023-03-12T16:22:44;40.27;;;9.57;;
13303;SDS011;6720;51.958;4.540;2023-03-12T16:25:11;40.77;;;9.63;;
13303;SDS011;6720;51.958;4.540;2023-03-12T16:27:38;41.90;;;9.10;;
13303;SDS011;6720;51.958;4.540;2023-03-12T16:30:22;39.03;;;9.97;;
13303;SDS011;6720;51.958;4.540;2023-03-12T16:32:55;43.37;;;9.70;;
13303;SDS011;6720;51.958;4.540;2023-03-12T16:35:23;36.80;;;8.80;;
13303;SDS011;6720;51.958;4.540;2023-03-12T16:37:49;30.97;;;8.67;;
13303;SDS011;6720;51.958;4.540;2023-03-12T16:40:15;33.53;;;7.97;;
13303;SDS011;6720;51.958;4.540;2023-03-12T16:42:42;24.83;;;6.73;;
13303;SDS011;6720;51.958;4.540;2023-03-12T16:45:10;25.43;;;6.83;;
13303;SDS011;6720;51.958;4.540;2023-03-12T16:47:38;27.97;;;6.63;;
13303;SDS011;6720;51.958;4.540;2023-03-12T16:50:23;18.53;;;5.47;;
13303;SDS011;6720;51.958;4.540;2023-03-12T16:52:48;23.50;;;4.67;;
13303;SDS011;6720;51.958;4.540;2023-03-12T16:55:25;17.93;;;5.10;;
13303;SDS011;6720;51.958;4.540;2023-03-12T16:57:53;19.20;;;5.33;;
13303;SDS011;6720;51.958;4.540;2023-03-12T17:00:22;19.33;;;5.13;;
13303;SDS011;6720;51.958;4.540;2023-03-12T17:02:50;24.23;;;5.53;;
13303;SDS011;6720;51.958;4.540;2023-03-12T17:05:21;19.83;;;5.53;;
13303;SDS011;6720;51.958;4.540;2023-03-12T17:07:47;21.13;;;5.03;;
13303;SDS011;6720;51.958;4.540;2023-03-12T17:10:13;20.57;;;5.20;;